createdAt,value
2017-02-01T00:00:41.960Z,0
2017-02-01T00:01:52.488Z,0
2017-02-01T00:03:02.417Z,0
2017-02-01T00:04:12.778Z,0
2017-02-01T00:05:22.713Z,0
2017-02-01T00:06:32.626Z,0
2017-02-01T00:07:43.120Z,0
2017-02-01T00:08:53.442Z,0
2017-02-01T00:10:03.300Z,0
2017-02-01T00:11:13.151Z,0
2017-02-01T00:12:23.421Z,0
2017-02-01T00:13:33.586Z,0
2017-02-01T00:14:43.860Z,0
2017-02-01T00:15:54.133Z,0
2017-02-01T00:17:04.388Z,0
2017-02-01T00:18:14.720Z,0
2017-02-01T00:19:24.827Z,0
2017-02-01T00:20:34.653Z,0
2017-02-01T00:21:44.653Z,0
2017-02-01T00:22:54.505Z,0
2017-02-01T00:24:04.354Z,0
2017-02-01T00:25:14.895Z,0
2017-02-01T00:26:25.175Z,0
2017-02-01T00:27:35.454Z,0
2017-02-01T00:28:45.774Z,0
2017-02-01T00:29:56.161Z,0
2017-02-01T00:31:06.832Z,0
2017-02-01T00:32:16.693Z,0
2017-02-01T00:33:26.591Z,0
2017-02-01T00:34:36.849Z,0
2017-02-01T00:35:47.130Z,0
2017-02-01T00:36:57.668Z,0
2017-02-01T00:38:07.917Z,0
2017-02-01T00:39:17.777Z,0
2017-02-01T00:40:28.059Z,0
2017-02-01T00:41:37.627Z,0
2017-02-01T00:42:48.186Z,0
2017-02-01T00:43:58.113Z,0
2017-02-01T00:45:08.390Z,0
2017-02-01T00:46:18.640Z,0
2017-02-01T00:47:28.509Z,0
2017-02-01T00:48:38.763Z,0
2017-02-01T00:49:49.135Z,0
2017-02-01T00:50:59.522Z,0
2017-02-01T00:52:09.364Z,0
2017-02-01T00:53:19.633Z,0
2017-02-01T00:54:29.373Z,0
2017-02-01T00:55:39.246Z,0
2017-02-01T00:56:49.585Z,0
2017-02-01T00:57:59.452Z,0
2017-02-01T00:59:09.731Z,0
2017-02-01T01:00:20.355Z,0
2017-02-01T01:01:30.212Z,0
2017-02-01T01:02:40.476Z,0
2017-02-01T01:03:50.715Z,0
2017-02-01T01:05:00.675Z,0
2017-02-01T01:06:10.814Z,0
2017-02-01T01:07:21.116Z,0
2017-02-01T01:08:30.986Z,0
2017-02-01T01:09:41.343Z,0
2017-02-01T01:10:51.242Z,0
2017-02-01T01:12:00.948Z,0
2017-02-01T01:13:10.432Z,0
2017-02-01T01:14:20.291Z,0
2017-02-01T01:15:30.560Z,0
2017-02-01T01:16:40.845Z,0
2017-02-01T01:17:51.550Z,0
2017-02-01T01:19:01.803Z,0
2017-02-01T01:20:12.061Z,0
2017-02-01T01:21:21.501Z,0
2017-02-01T01:22:31.834Z,0
2017-02-01T01:23:42.327Z,0
2017-02-01T01:24:52.219Z,0
2017-02-01T01:26:02.077Z,0
2017-02-01T01:27:11.942Z,0
2017-02-01T01:28:22.229Z,0
2017-02-01T01:29:32.327Z,0
2017-02-01T01:30:42.204Z,0
2017-02-01T01:31:52.435Z,0
2017-02-01T01:33:02.670Z,0
2017-02-01T01:34:12.228Z,0
2017-02-01T01:35:22.470Z,0
2017-02-01T01:36:32.777Z,0
2017-02-01T01:37:43.047Z,0
2017-02-01T01:38:53.011Z,0
2017-02-01T01:40:02.906Z,0
2017-02-01T01:41:13.465Z,0
2017-02-01T01:42:23.712Z,0
2017-02-01T01:43:33.562Z,0
2017-02-01T01:44:43.836Z,0
2017-02-01T01:45:53.761Z,0
2017-02-01T01:47:03.956Z,0
2017-02-01T01:48:14.225Z,0
2017-02-01T01:49:24.080Z,0
2017-02-01T01:50:34.432Z,0
2017-02-01T01:51:44.739Z,0
2017-02-01T01:52:54.906Z,0
2017-02-01T01:54:05.258Z,0
2017-02-01T01:55:15.516Z,0
2017-02-01T01:56:25.887Z,0
2017-02-01T01:57:35.768Z,0
2017-02-01T01:58:45.876Z,0
2017-02-01T01:59:55.367Z,0
2017-02-01T02:01:05.617Z,0
2017-02-01T02:02:15.453Z,0
2017-02-01T02:03:25.764Z,0
2017-02-01T02:04:35.938Z,0
2017-02-01T02:05:46.244Z,0
2017-02-01T02:06:56.517Z,0
2017-02-01T02:08:06.882Z,0
2017-02-01T02:09:17.186Z,0
2017-02-01T02:10:27.687Z,0
2017-02-01T02:11:38.021Z,0
2017-02-01T02:12:48.285Z,0
2017-02-01T02:13:58.142Z,0
2017-02-01T02:15:08.410Z,0
2017-02-01T02:16:18.112Z,0
2017-02-01T02:17:28.019Z,0
2017-02-01T02:18:38.313Z,0
2017-02-01T02:19:48.292Z,0
2017-02-01T02:20:58.140Z,0
2017-02-01T02:22:08.657Z,0
2017-02-01T02:23:18.510Z,0
2017-02-01T02:24:28.403Z,0
2017-02-01T02:25:38.807Z,0
2017-02-01T02:26:48.685Z,0
2017-02-01T02:27:59.181Z,0
2017-02-01T02:29:09.460Z,0
2017-02-01T02:30:19.694Z,0
2017-02-01T02:31:29.977Z,0
2017-02-01T02:32:39.863Z,0
2017-02-01T02:33:49.988Z,0
2017-02-01T02:34:59.443Z,0
2017-02-01T02:36:09.728Z,0
2017-02-01T02:37:19.742Z,0
2017-02-01T02:38:29.992Z,0
2017-02-01T02:39:40.566Z,0
2017-02-01T02:40:50.852Z,0
2017-02-01T02:42:01.117Z,0
2017-02-01T02:43:11.008Z,0
2017-02-01T02:44:21.272Z,0
2017-02-01T02:45:31.784Z,0
2017-02-01T02:46:41.693Z,0
2017-02-01T02:47:51.162Z,0
2017-02-01T02:49:01.441Z,0
2017-02-01T02:50:11.270Z,0
2017-02-01T02:51:21.824Z,0
2017-02-01T02:52:31.845Z,0
2017-02-01T02:53:42.125Z,0
2017-02-01T02:54:52.407Z,0
2017-02-01T02:56:02.677Z,0
2017-02-01T02:57:13.273Z,0
2017-02-01T02:58:23.504Z,0
2017-02-01T02:59:33.444Z,0
2017-02-01T03:00:43.735Z,0
2017-02-01T03:01:53.978Z,0
2017-02-01T03:03:04.575Z,0
2017-02-01T03:04:14.483Z,0
2017-02-01T03:05:24.841Z,0
2017-02-01T03:06:35.087Z,0
2017-02-01T03:07:45.377Z,0
2017-02-01T03:08:55.485Z,0
2017-02-01T03:10:05.801Z,0
2017-02-01T03:11:16.127Z,0
2017-02-01T03:12:26.378Z,0
2017-02-01T03:13:36.271Z,0
2017-02-01T03:14:46.445Z,0
2017-02-01T03:15:56.698Z,0
2017-02-01T03:17:06.638Z,0
2017-02-01T03:18:16.926Z,0
2017-02-01T03:19:27.183Z,0
2017-02-01T03:20:37.694Z,0
2017-02-01T03:21:47.962Z,0
2017-02-01T03:22:58.392Z,0
2017-02-01T03:24:08.693Z,0
2017-02-01T03:25:18.941Z,0
2017-02-01T03:26:29.506Z,0
2017-02-01T03:27:39.839Z,0
2017-02-01T03:28:50.127Z,0
2017-02-01T03:30:00.095Z,0
2017-02-01T03:31:09.966Z,0
2017-02-01T03:32:20.156Z,0
2017-02-01T03:33:29.684Z,0
2017-02-01T03:34:40.002Z,0
2017-02-01T03:35:50.273Z,0
2017-02-01T03:37:00.591Z,0
2017-02-01T03:38:11.089Z,0
2017-02-01T03:39:21.397Z,0
2017-02-01T03:40:31.680Z,0
2017-02-01T03:41:41.926Z,0
2017-02-01T03:42:52.174Z,0
2017-02-01T03:44:02.425Z,0
2017-02-01T03:45:12.774Z,0
2017-02-01T03:46:23.089Z,0
2017-02-01T03:47:33.349Z,0
2017-02-01T03:48:43.587Z,0
2017-02-01T03:49:54.188Z,0
2017-02-01T03:51:04.441Z,0
2017-02-01T03:52:14.734Z,0
2017-02-01T03:53:24.618Z,0
2017-02-01T03:54:34.860Z,0
2017-02-01T03:55:45.375Z,0
2017-02-01T03:56:55.234Z,0
2017-02-01T03:58:05.538Z,0
2017-02-01T03:59:15.823Z,0
2017-02-01T04:00:25.259Z,0
2017-02-01T04:01:35.813Z,0
2017-02-01T04:02:45.732Z,0
2017-02-01T04:03:56.040Z,0
2017-02-01T04:05:06.371Z,0
2017-02-01T04:06:16.252Z,0
2017-02-01T04:07:26.869Z,0
2017-02-01T04:08:37.118Z,0
2017-02-01T04:09:47.472Z,0
2017-02-01T04:10:57.717Z,0
2017-02-01T04:12:07.560Z,0
2017-02-01T04:13:17.694Z,0
2017-02-01T04:14:28.201Z,0
2017-02-01T04:15:38.451Z,0
2017-02-01T04:16:48.707Z,0
2017-02-01T04:17:58.960Z,0
2017-02-01T04:19:09.058Z,0
2017-02-01T04:20:18.903Z,0
2017-02-01T04:21:29.172Z,0
2017-02-01T04:22:39.260Z,0
2017-02-01T04:23:49.669Z,0
2017-02-01T04:24:59.760Z,0
2017-02-01T04:26:10.048Z,0
2017-02-01T04:27:19.910Z,0
2017-02-01T04:28:29.380Z,0
2017-02-01T04:29:39.656Z,0
2017-02-01T04:30:50.202Z,0
2017-02-01T04:32:00.444Z,0
2017-02-01T04:33:10.289Z,0
2017-02-01T04:34:20.145Z,0
2017-02-01T04:35:30.443Z,0
2017-02-01T04:36:41.052Z,0
2017-02-01T04:37:51.315Z,0
2017-02-01T04:39:01.608Z,0
2017-02-01T04:40:11.460Z,0
2017-02-01T04:41:21.802Z,0
2017-02-01T04:42:31.957Z,0
2017-02-01T04:43:41.448Z,0
2017-02-01T04:44:50.880Z,0
2017-02-01T04:46:00.728Z,0
2017-02-01T04:47:11.026Z,0
2017-02-01T04:48:21.603Z,0
2017-02-01T04:49:31.452Z,0
2017-02-01T04:50:41.903Z,0
2017-02-01T04:51:51.743Z,0
2017-02-01T04:53:01.585Z,0
2017-02-01T04:54:11.675Z,0
2017-02-01T04:55:21.995Z,0
2017-02-01T04:56:31.871Z,0
2017-02-01T04:57:42.156Z,0
2017-02-01T04:58:52.520Z,0
2017-02-01T05:00:02.668Z,0
2017-02-01T05:01:12.911Z,0
2017-02-01T05:02:22.408Z,0
2017-02-01T05:03:32.841Z,0
2017-02-01T05:04:42.689Z,0
2017-02-01T05:05:53.236Z,0
2017-02-01T05:07:03.516Z,0
2017-02-01T05:08:13.796Z,0
2017-02-01T05:09:23.625Z,0
2017-02-01T05:10:33.590Z,0
2017-02-01T05:11:44.068Z,0
2017-02-01T05:12:54.426Z,0
2017-02-01T05:14:04.302Z,0
2017-02-01T05:15:14.137Z,0
2017-02-01T05:16:24.402Z,0
2017-02-01T05:17:34.507Z,0
2017-02-01T05:18:44.754Z,0
2017-02-01T05:19:55.032Z,0
2017-02-01T05:21:05.298Z,0
2017-02-01T05:22:15.627Z,0
2017-02-01T05:23:25.721Z,0
2017-02-01T05:24:36.004Z,0
2017-02-01T05:25:46.255Z,0
2017-02-01T05:26:56.105Z,0
2017-02-01T05:28:06.366Z,0
2017-02-01T05:29:16.944Z,0
2017-02-01T05:30:26.773Z,0
2017-02-01T05:31:37.081Z,0
2017-02-01T05:32:46.975Z,0
2017-02-01T05:33:57.208Z,0
2017-02-01T05:35:07.774Z,0
2017-02-01T05:36:17.723Z,0
2017-02-01T05:37:27.708Z,0
2017-02-01T05:38:38.060Z,0
2017-02-01T05:39:48.345Z,0
2017-02-01T05:40:58.906Z,0
2017-02-01T05:42:08.798Z,0
2017-02-01T05:43:19.095Z,0
2017-02-01T05:44:28.989Z,0
2017-02-01T05:45:39.324Z,0
2017-02-01T05:46:49.915Z,0
2017-02-01T05:47:59.763Z,0
2017-02-01T05:49:09.697Z,0
2017-02-01T05:50:19.986Z,0
2017-02-01T05:51:29.898Z,0
2017-02-01T05:52:40.412Z,0
2017-02-01T05:53:50.242Z,0
2017-02-01T05:55:00.092Z,0
2017-02-01T05:56:10.372Z,0
2017-02-01T05:57:20.626Z,0
2017-02-01T05:58:30.736Z,0
2017-02-01T05:59:41.007Z,0
2017-02-01T06:00:50.848Z,0
2017-02-01T06:02:01.101Z,0
2017-02-01T06:03:11.386Z,0
2017-02-01T06:04:22.151Z,0
2017-02-01T06:05:32.448Z,0
2017-02-01T06:06:41.922Z,0
2017-02-01T06:07:52.330Z,0
2017-02-01T06:09:02.623Z,0
2017-02-01T06:10:12.752Z,0
2017-02-01T06:11:23.034Z,0
2017-02-01T06:12:33.314Z,0
2017-02-01T06:13:43.194Z,0
2017-02-01T06:14:53.444Z,0
2017-02-01T06:16:03.530Z,0
2017-02-01T06:17:13.777Z,0
2017-02-01T06:18:23.254Z,0
2017-02-01T06:19:32.888Z,0
2017-02-01T06:20:42.764Z,0
2017-02-01T06:21:53.270Z,0
2017-02-01T06:23:03.612Z,0
2017-02-01T06:24:13.895Z,0
2017-02-01T06:25:23.772Z,0
2017-02-01T06:26:33.230Z,0
2017-02-01T06:27:43.832Z,0
2017-02-01T06:28:53.728Z,0
2017-02-01T06:30:04.073Z,0
2017-02-01T06:31:14.501Z,0
2017-02-01T06:32:24.506Z,0
2017-02-01T06:33:35.082Z,0
2017-02-01T06:34:45.121Z,0
2017-02-01T06:35:54.964Z,0
2017-02-01T06:37:05.276Z,0
2017-02-01T06:38:15.634Z,0
2017-02-01T06:39:25.706Z,0
2017-02-01T06:40:35.550Z,0
2017-02-01T06:41:45.805Z,0
2017-02-01T06:42:55.740Z,0
2017-02-01T06:44:05.977Z,0
2017-02-01T06:45:16.094Z,0
2017-02-01T06:46:26.002Z,0
2017-02-01T06:47:35.853Z,0
2017-02-01T06:48:45.787Z,0
2017-02-01T06:49:55.662Z,0
2017-02-01T06:51:06.195Z,0
2017-02-01T06:52:16.566Z,0
2017-02-01T06:53:26.868Z,0
2017-02-01T06:54:36.733Z,0
2017-02-01T06:55:46.224Z,0
2017-02-01T06:56:56.384Z,0
2017-02-01T06:58:06.301Z,5
2017-02-01T06:59:16.595Z,5
2017-02-01T07:00:26.883Z,5
2017-02-01T07:01:37.235Z,5
2017-02-01T07:02:47.758Z,5
2017-02-01T07:03:58.069Z,5
2017-02-01T07:05:08.400Z,10
2017-02-01T07:06:18.725Z,10
2017-02-01T07:07:28.158Z,10
2017-02-01T07:08:38.340Z,10
2017-02-01T07:09:48.696Z,10
2017-02-01T07:10:58.929Z,15
2017-02-01T07:12:08.791Z,15
2017-02-01T07:13:19.078Z,15
2017-02-01T07:14:29.670Z,15
2017-02-01T07:15:39.559Z,15
2017-02-01T07:16:49.426Z,20
2017-02-01T07:17:59.725Z,20
2017-02-01T07:19:10.075Z,20
2017-02-01T07:20:20.572Z,25
2017-02-01T07:21:30.420Z,25
2017-02-01T07:22:40.306Z,25
2017-02-01T07:23:50.570Z,25
2017-02-01T07:25:00.416Z,30
2017-02-01T07:26:11.032Z,35
2017-02-01T07:27:20.914Z,40
2017-02-01T07:28:31.338Z,40
2017-02-01T07:29:41.245Z,40
2017-02-01T07:30:50.834Z,40
2017-02-01T07:32:01.376Z,35
2017-02-01T07:33:10.828Z,35
2017-02-01T07:34:21.107Z,30
2017-02-01T07:35:29.749Z,30
2017-02-01T07:36:39.734Z,30
2017-02-01T07:37:49.446Z,30
2017-02-01T07:38:59.798Z,30
2017-02-01T07:40:09.681Z,30
2017-02-01T07:41:19.939Z,30
2017-02-01T07:42:29.869Z,35
2017-02-01T07:43:40.445Z,35
2017-02-01T07:44:50.701Z,35
2017-02-01T07:46:00.969Z,40
2017-02-01T07:47:10.559Z,40
2017-02-01T07:48:20.884Z,40
2017-02-01T07:49:30.985Z,35
2017-02-01T07:50:40.852Z,40
2017-02-01T07:51:51.127Z,35
2017-02-01T07:53:01.437Z,30
2017-02-01T07:54:11.746Z,30
2017-02-01T07:55:21.889Z,30
2017-02-01T07:56:32.168Z,35
2017-02-01T07:57:41.605Z,35
2017-02-01T07:58:51.484Z,40
2017-02-01T08:00:01.375Z,40
2017-02-01T08:01:12.050Z,40
2017-02-01T08:02:22.361Z,40
2017-02-01T08:03:32.659Z,40
2017-02-01T08:04:42.961Z,45
2017-02-01T08:05:53.313Z,45
2017-02-01T08:07:03.044Z,45
2017-02-01T08:08:12.942Z,45
2017-02-01T08:09:23.233Z,50
2017-02-01T08:10:33.499Z,55
2017-02-01T08:11:43.878Z,55
2017-02-01T08:12:54.017Z,55
2017-02-01T08:14:04.335Z,50
2017-02-01T08:15:14.540Z,55
2017-02-01T08:16:24.420Z,55
2017-02-01T08:17:34.697Z,60
2017-02-01T08:18:44.470Z,60
2017-02-01T08:19:54.827Z,55
2017-02-01T08:21:04.821Z,60
2017-02-01T08:22:14.723Z,65
2017-02-01T08:23:25.029Z,65
2017-02-01T08:24:35.139Z,65
2017-02-01T08:25:44.198Z,65
2017-02-01T08:26:54.520Z,60
2017-02-01T08:28:04.813Z,65
2017-02-01T08:29:15.072Z,75
2017-02-01T08:30:25.303Z,70
2017-02-01T08:31:35.181Z,65
2017-02-01T08:32:45.441Z,80
2017-02-01T08:33:55.776Z,80
2017-02-01T08:35:06.130Z,85
2017-02-01T08:36:16.704Z,90
2017-02-01T08:37:26.974Z,90
2017-02-01T08:38:37.305Z,75
2017-02-01T08:39:47.153Z,75
2017-02-01T08:40:57.503Z,80
2017-02-01T08:42:08.044Z,80
2017-02-01T08:43:17.878Z,85
2017-02-01T08:44:28.228Z,75
2017-02-01T08:45:38.570Z,75
2017-02-01T08:46:48.856Z,85
2017-02-01T08:47:59.050Z,85
2017-02-01T08:49:09.336Z,75
2017-02-01T08:50:19.204Z,65
2017-02-01T08:51:29.465Z,65
2017-02-01T08:52:39.328Z,70
2017-02-01T08:53:49.929Z,70
2017-02-01T08:54:59.392Z,70
2017-02-01T08:56:09.664Z,70
2017-02-01T08:57:19.932Z,100
2017-02-01T08:58:29.780Z,105
2017-02-01T08:59:40.298Z,115
2017-02-01T09:00:50.613Z,105
2017-02-01T09:02:00.888Z,105
2017-02-01T09:03:11.202Z,105
2017-02-01T09:04:21.441Z,105
2017-02-01T09:05:32.150Z,110
2017-02-01T09:06:42.432Z,115
2017-02-01T09:07:52.870Z,110
2017-02-01T09:09:02.720Z,105
2017-02-01T09:10:12.183Z,110
2017-02-01T09:11:21.985Z,130
2017-02-01T09:12:32.242Z,120
2017-02-01T09:13:42.287Z,105
2017-02-01T09:14:52.265Z,95
2017-02-01T09:16:02.519Z,110
2017-02-01T09:17:12.246Z,100
2017-02-01T09:18:22.478Z,110
2017-02-01T09:19:32.785Z,100
2017-02-01T09:20:43.045Z,105
2017-02-01T09:21:52.944Z,100
2017-02-01T09:23:03.507Z,90
2017-02-01T09:24:13.797Z,90
2017-02-01T09:25:23.643Z,85
2017-02-01T09:26:33.896Z,80
2017-02-01T09:27:44.156Z,85
2017-02-01T09:28:54.702Z,105
2017-02-01T09:30:04.951Z,105
2017-02-01T09:31:15.242Z,105
2017-02-01T09:32:25.084Z,115
2017-02-01T09:33:35.348Z,135
2017-02-01T09:34:45.870Z,160
2017-02-01T09:35:56.184Z,190
2017-02-01T09:37:06.662Z,205
2017-02-01T09:38:16.978Z,190
2017-02-01T09:39:26.878Z,185
2017-02-01T09:40:37.391Z,175
2017-02-01T09:41:47.712Z,185
2017-02-01T09:42:58.100Z,195
2017-02-01T09:44:08.337Z,190
2017-02-01T09:45:18.659Z,180
2017-02-01T09:46:28.820Z,185
2017-02-01T09:47:38.654Z,200
2017-02-01T09:48:48.918Z,200
2017-02-01T09:49:59.188Z,215
2017-02-01T09:51:09.165Z,230
2017-02-01T09:52:19.891Z,245
2017-02-01T09:53:30.184Z,265
2017-02-01T09:54:40.068Z,270
2017-02-01T09:55:50.347Z,290
2017-02-01T09:57:00.246Z,275
2017-02-01T09:58:10.802Z,255
2017-02-01T09:59:20.674Z,255
2017-02-01T10:00:30.117Z,250
2017-02-01T10:01:40.450Z,240
2017-02-01T10:02:50.311Z,230
2017-02-01T10:04:00.835Z,235
2017-02-01T10:05:11.156Z,250
2017-02-01T10:06:21.419Z,250
2017-02-01T10:07:31.272Z,255
2017-02-01T10:08:41.567Z,260
2017-02-01T10:09:51.519Z,285
2017-02-01T10:11:01.808Z,290
2017-02-01T10:12:11.680Z,300
2017-02-01T10:13:21.990Z,325
2017-02-01T10:14:32.282Z,340
2017-02-01T10:15:42.903Z,355
2017-02-01T10:16:52.841Z,365
2017-02-01T10:18:02.691Z,355
2017-02-01T10:19:12.766Z,345
2017-02-01T10:20:23.088Z,325
2017-02-01T10:21:33.626Z,315
2017-02-01T10:22:43.923Z,330
2017-02-01T10:23:54.195Z,340
2017-02-01T10:25:04.232Z,345
2017-02-01T10:26:14.617Z,325
2017-02-01T10:27:24.909Z,295
2017-02-01T10:28:34.783Z,280
2017-02-01T10:29:45.101Z,270
2017-02-01T10:30:55.377Z,270
2017-02-01T10:32:05.641Z,320
2017-02-01T10:33:15.348Z,325
2017-02-01T10:34:25.236Z,315
2017-02-01T10:35:35.581Z,290
2017-02-01T10:36:45.056Z,255
2017-02-01T10:37:54.921Z,280
2017-02-01T10:39:05.634Z,290
2017-02-01T10:40:15.896Z,275
2017-02-01T10:41:26.168Z,260
2017-02-01T10:42:36.445Z,265
2017-02-01T10:43:46.720Z,305
2017-02-01T10:44:57.247Z,300
2017-02-01T10:46:07.648Z,280
2017-02-01T10:47:17.512Z,255
2017-02-01T10:48:27.370Z,255
2017-02-01T10:49:36.858Z,245
2017-02-01T10:50:47.406Z,255
2017-02-01T10:51:57.731Z,260
2017-02-01T10:53:08.020Z,225
2017-02-01T10:54:18.355Z,220
2017-02-01T10:55:28.688Z,245
2017-02-01T10:56:38.792Z,220
2017-02-01T10:57:48.651Z,220
2017-02-01T10:58:59.057Z,235
2017-02-01T11:00:08.982Z,245
2017-02-01T11:01:18.894Z,285
2017-02-01T11:02:28.726Z,320
2017-02-01T11:03:38.605Z,275
2017-02-01T11:04:48.909Z,325
2017-02-01T11:05:59.162Z,310
2017-02-01T11:07:09.501Z,280
2017-02-01T11:08:20.066Z,245
2017-02-01T11:09:30.395Z,245
2017-02-01T11:10:40.382Z,255
2017-02-01T11:11:50.654Z,240
2017-02-01T11:13:00.523Z,245
2017-02-01T11:14:10.275Z,235
2017-02-01T11:15:20.145Z,235
2017-02-01T11:16:30.436Z,235
2017-02-01T11:17:40.724Z,240
2017-02-01T11:18:51.057Z,260
2017-02-01T11:20:01.160Z,260
2017-02-01T11:21:11.426Z,260
2017-02-01T11:22:21.281Z,250
2017-02-01T11:23:31.553Z,230
2017-02-01T11:24:41.879Z,235
2017-02-01T11:25:51.643Z,245
2017-02-01T11:27:02.011Z,245
2017-02-01T11:28:12.359Z,225
2017-02-01T11:29:22.800Z,220
2017-02-01T11:30:33.137Z,205
2017-02-01T11:31:43.711Z,200
2017-02-01T11:32:54.046Z,195
2017-02-01T11:34:04.296Z,195
2017-02-01T11:35:14.585Z,205
2017-02-01T11:36:24.867Z,200
2017-02-01T11:37:35.404Z,200
2017-02-01T11:38:45.284Z,210
2017-02-01T11:39:54.773Z,225
2017-02-01T11:41:04.690Z,215
2017-02-01T11:42:14.730Z,200
2017-02-01T11:43:24.449Z,205
2017-02-01T11:44:34.334Z,200
2017-02-01T11:45:44.615Z,200
2017-02-01T11:46:54.939Z,205
2017-02-01T11:48:05.210Z,205
2017-02-01T11:49:15.347Z,215
2017-02-01T11:50:25.611Z,215
2017-02-01T11:51:35.894Z,225
2017-02-01T11:52:46.221Z,215
2017-02-01T11:53:56.506Z,215
2017-02-01T11:55:07.122Z,220
2017-02-01T11:56:16.963Z,230
2017-02-01T11:57:26.882Z,235
2017-02-01T11:58:37.183Z,230
2017-02-01T11:59:47.523Z,215
2017-02-01T12:00:57.694Z,195
2017-02-01T12:02:07.177Z,200
2017-02-01T12:03:17.441Z,215
2017-02-01T12:04:27.755Z,250
2017-02-01T12:05:38.049Z,230
2017-02-01T12:06:48.648Z,210
2017-02-01T12:07:58.116Z,245
2017-02-01T12:09:08.406Z,290
2017-02-01T12:10:18.708Z,280
2017-02-01T12:11:28.791Z,240
2017-02-01T12:12:39.319Z,240
2017-02-01T12:13:49.177Z,255
2017-02-01T12:14:59.486Z,240
2017-02-01T12:16:09.790Z,245
2017-02-01T12:17:19.729Z,250
2017-02-01T12:18:29.968Z,255
2017-02-01T12:19:40.298Z,265
2017-02-01T12:20:50.566Z,255
2017-02-01T12:22:00.861Z,260
2017-02-01T12:23:10.746Z,265
2017-02-01T12:24:21.293Z,260
2017-02-01T12:25:31.605Z,255
2017-02-01T12:26:41.854Z,260
2017-02-01T12:27:52.151Z,255
2017-02-01T12:29:02.434Z,260
2017-02-01T12:30:12.281Z,265
2017-02-01T12:31:22.149Z,260
2017-02-01T12:32:32.424Z,250
2017-02-01T12:33:41.941Z,240
2017-02-01T12:34:52.239Z,240
2017-02-01T12:36:02.803Z,230
2017-02-01T12:37:12.735Z,230
2017-02-01T12:38:22.992Z,210
2017-02-01T12:39:33.326Z,220
2017-02-01T12:40:43.579Z,210
2017-02-01T12:41:54.243Z,235
2017-02-01T12:43:04.580Z,235
2017-02-01T12:44:14.485Z,200
2017-02-01T12:45:24.774Z,205
2017-02-01T12:46:35.044Z,210
2017-02-01T12:47:45.232Z,220
2017-02-01T12:48:55.138Z,210
2017-02-01T12:50:05.049Z,205
2017-02-01T12:51:15.424Z,195
2017-02-01T12:52:25.729Z,205
2017-02-01T12:53:36.246Z,195
2017-02-01T12:54:46.548Z,170
2017-02-01T12:55:57.105Z,185
2017-02-01T12:57:07.393Z,195
2017-02-01T12:58:17.666Z,195
2017-02-01T12:59:27.820Z,195
2017-02-01T13:00:38.141Z,195
2017-02-01T13:01:48.460Z,200
2017-02-01T13:02:58.738Z,195
2017-02-01T13:04:07.918Z,200
2017-02-01T13:05:18.408Z,205
2017-02-01T13:06:27.861Z,210
2017-02-01T13:07:38.110Z,205
2017-02-01T13:08:47.593Z,195
2017-02-01T13:09:57.876Z,190
2017-02-01T13:11:08.507Z,185
2017-02-01T13:12:18.417Z,185
2017-02-01T13:13:28.695Z,180
2017-02-01T13:14:38.977Z,175
2017-02-01T13:15:48.831Z,165
2017-02-01T13:16:58.939Z,175
2017-02-01T13:18:09.447Z,190
2017-02-01T13:19:19.746Z,180
2017-02-01T13:20:29.996Z,170
2017-02-01T13:21:40.255Z,165
2017-02-01T13:22:50.865Z,165
2017-02-01T13:24:01.166Z,165
2017-02-01T13:25:11.502Z,165
2017-02-01T13:26:21.400Z,170
2017-02-01T13:27:30.874Z,160
2017-02-01T13:28:41.455Z,145
2017-02-01T13:29:51.776Z,150
2017-02-01T13:31:02.041Z,145
2017-02-01T13:32:11.931Z,130
2017-02-01T13:33:21.942Z,125
2017-02-01T13:34:31.713Z,125
2017-02-01T13:35:42.176Z,115
2017-02-01T13:36:52.066Z,120
2017-02-01T13:38:02.397Z,125
2017-02-01T13:39:12.262Z,125
2017-02-01T13:40:22.374Z,115
2017-02-01T13:41:32.708Z,115
2017-02-01T13:42:43.050Z,115
2017-02-01T13:43:53.303Z,110
2017-02-01T13:45:03.197Z,115
2017-02-01T13:46:13.433Z,110
2017-02-01T13:47:23.752Z,105
2017-02-01T13:48:34.104Z,110
2017-02-01T13:49:44.399Z,105
2017-02-01T13:50:54.283Z,110
2017-02-01T13:52:04.807Z,110
2017-02-01T13:53:15.135Z,110
2017-02-01T13:54:25.497Z,105
2017-02-01T13:55:35.380Z,110
2017-02-01T13:56:45.717Z,105
2017-02-01T13:57:56.425Z,105
2017-02-01T13:59:06.688Z,110
2017-02-01T14:00:16.998Z,105
2017-02-01T14:01:27.288Z,105
2017-02-01T14:02:37.165Z,100
2017-02-01T14:03:46.927Z,105
2017-02-01T14:04:57.320Z,105
2017-02-01T14:06:07.597Z,100
2017-02-01T14:07:18.024Z,95
2017-02-01T14:08:28.345Z,100
2017-02-01T14:09:39.019Z,100
2017-02-01T14:10:49.288Z,105
2017-02-01T14:11:59.563Z,100
2017-02-01T14:13:09.407Z,100
2017-02-01T14:14:19.659Z,100
2017-02-01T14:15:30.234Z,105
2017-02-01T14:16:40.134Z,105
2017-02-01T14:17:49.603Z,100
2017-02-01T14:19:00.015Z,100
2017-02-01T14:20:10.000Z,105
2017-02-01T14:21:20.591Z,115
2017-02-01T14:22:30.972Z,110
2017-02-01T14:23:41.227Z,105
2017-02-01T14:24:51.518Z,115
2017-02-01T14:26:01.790Z,105
2017-02-01T14:27:12.390Z,120
2017-02-01T14:28:22.301Z,125
2017-02-01T14:29:31.761Z,100
2017-02-01T14:30:42.036Z,110
2017-02-01T14:31:52.340Z,110
2017-02-01T14:33:02.935Z,105
2017-02-01T14:34:12.207Z,105
2017-02-01T14:35:22.501Z,100
2017-02-01T14:36:32.774Z,115
2017-02-01T14:37:42.699Z,120
2017-02-01T14:38:52.893Z,120
2017-02-01T14:40:03.226Z,110
2017-02-01T14:41:13.481Z,110
2017-02-01T14:42:23.770Z,100
2017-02-01T14:43:34.031Z,100
2017-02-01T14:44:44.610Z,85
2017-02-01T14:45:54.925Z,95
2017-02-01T14:47:04.778Z,90
2017-02-01T14:48:15.189Z,85
2017-02-01T14:49:24.654Z,95
2017-02-01T14:50:34.898Z,90
2017-02-01T14:51:44.364Z,95
2017-02-01T14:52:54.651Z,90
2017-02-01T14:54:36.677Z,85
2017-02-01T14:55:47.220Z,85
2017-02-01T14:56:57.506Z,80
2017-02-01T14:58:07.363Z,75
2017-02-01T14:59:17.823Z,75
2017-02-01T15:00:27.671Z,70
2017-02-01T15:01:37.986Z,65
2017-02-01T15:02:48.325Z,70
2017-02-01T15:03:57.794Z,60
2017-02-01T15:05:08.088Z,65
2017-02-01T15:06:17.951Z,65
2017-02-01T15:07:28.512Z,65
2017-02-01T15:08:38.801Z,60
2017-02-01T15:09:49.116Z,60
2017-02-01T15:10:58.994Z,60
2017-02-01T15:12:08.885Z,60
2017-02-01T15:13:19.428Z,60
2017-02-01T15:14:29.822Z,60
2017-02-01T15:15:40.142Z,60
2017-02-01T15:16:50.427Z,60
2017-02-01T15:18:00.707Z,55
2017-02-01T15:19:10.888Z,55
2017-02-01T15:20:21.215Z,55
2017-02-01T15:21:31.157Z,55
2017-02-01T15:22:41.463Z,50
2017-02-01T15:23:50.538Z,50
2017-02-01T15:25:01.077Z,50
2017-02-01T15:26:11.369Z,45
2017-02-01T15:27:21.643Z,45
2017-02-01T15:28:31.916Z,45
2017-02-01T15:29:42.219Z,40
2017-02-01T15:30:52.368Z,35
2017-02-01T15:32:02.670Z,40
2017-02-01T15:33:12.774Z,35
2017-02-01T15:34:23.033Z,35
2017-02-01T15:35:33.314Z,35
2017-02-01T15:36:43.477Z,30
2017-02-01T15:37:53.741Z,30
2017-02-01T15:39:03.591Z,30
2017-02-01T15:40:13.497Z,25
2017-02-01T15:41:22.572Z,25
2017-02-01T15:42:33.092Z,25
2017-02-01T15:43:43.387Z,20
2017-02-01T15:44:53.290Z,20
2017-02-01T15:46:03.643Z,20
2017-02-01T15:47:13.555Z,20
2017-02-01T15:48:24.068Z,15
2017-02-01T15:49:33.564Z,15
2017-02-01T15:50:43.055Z,10
2017-02-01T15:51:53.346Z,10
2017-02-01T15:53:03.779Z,10
2017-02-01T15:54:14.103Z,10
2017-02-01T15:55:24.007Z,10
2017-02-01T15:56:34.259Z,5
2017-02-01T15:57:44.169Z,10
2017-02-01T15:58:54.453Z,5
2017-02-01T16:00:04.622Z,5
2017-02-01T16:01:14.900Z,5
2017-02-01T16:02:24.777Z,10
2017-02-01T16:03:35.061Z,10
2017-02-01T16:04:45.353Z,10
2017-02-01T16:05:55.573Z,10
2017-02-01T16:07:05.909Z,5
2017-02-01T16:08:16.247Z,5
2017-02-01T16:09:26.644Z,5
2017-02-01T16:10:35.718Z,5
2017-02-01T16:11:46.341Z,5
2017-02-01T16:12:56.245Z,5
2017-02-01T16:14:06.697Z,0
2017-02-01T16:15:16.931Z,0
2017-02-01T16:16:27.420Z,0
2017-02-01T16:17:38.074Z,0
2017-02-01T16:20:10.846Z,0
2017-02-01T16:21:20.615Z,0
2017-02-01T16:22:31.029Z,0
2017-02-01T16:23:40.420Z,0
2017-02-01T16:24:50.198Z,0
2017-02-01T16:26:00.556Z,0
2017-02-01T16:27:10.546Z,0
2017-02-01T16:28:20.661Z,0
2017-02-01T16:29:30.523Z,0
2017-02-01T16:30:40.390Z,0
2017-02-01T16:31:50.758Z,0
2017-02-01T16:33:00.738Z,0
2017-02-01T16:34:11.285Z,0
2017-02-01T16:35:21.545Z,0
2017-02-01T16:36:31.405Z,0
2017-02-01T16:37:40.460Z,0
2017-02-01T16:38:50.840Z,0
2017-02-01T16:40:01.498Z,0
2017-02-01T16:41:11.876Z,0
2017-02-01T16:42:22.156Z,0
2017-02-01T16:43:32.073Z,0
2017-02-01T16:44:42.346Z,0
2017-02-01T16:45:52.977Z,0
2017-02-01T16:47:02.895Z,0